sensor_id;sensor_type;location;lat;lon;timestamp;P1;durP1;ratioP1;P2;durP2;ratioP2
27618;SDS011;15039;50.830;4.730;2023-04-25T00:01:16;7.93;;;3.90;;
27618;SDS011;15039;50.830;4.730;2023-04-25T00:03:42;9.18;;;4.03;;
27618;SDS011;15039;50.830;4.730;2023-04-25T00:06:08;11.32;;;4.32;;
27618;SDS011;15039;50.830;4.730;2023-04-25T00:08:34;7.60;;;3.30;;
27618;SDS011;15039;50.830;4.730;2023-04-25T00:11:00;9.57;;;3.53;;
27618;SDS011;15039;50.830;4.730;2023-04-25T00:13:26;10.35;;;4.05;;
27618;SDS011;15039;50.830;4.730;2023-04-25T00:15:52;7.35;;;3.08;;
27618;SDS011;15039;50.830;4.730;2023-04-25T00:18:18;10.07;;;3.95;;
27618;SDS011;15039;50.830;4.730;2023-04-25T00:20:45;12.38;;;4.60;;
27618;SDS011;15039;50.830;4.730;2023-04-25T00:23:15;7.55;;;3.30;;
27618;SDS011;15039;50.830;4.730;2023-04-25T00:25:48;14.25;;;5.18;;
27618;SDS011;15039;50.830;4.730;2023-04-25T00:28:15;9.27;;;3.78;;
27618;SDS011;15039;50.830;4.730;2023-04-25T00:30:41;14.27;;;4.28;;
27618;SDS011;15039;50.830;4.730;2023-04-25T00:33:08;9.77;;;3.53;;
27618;SDS011;15039;50.830;4.730;2023-04-25T00:35:34;9.20;;;3.78;;
27618;SDS011;15039;50.830;4.730;2023-04-25T00:38:02;8.32;;;3.80;;
27618;SDS011;15039;50.830;4.730;2023-04-25T00:40:30;10.30;;;4.05;;
27618;SDS011;15039;50.830;4.730;2023-04-25T00:42:56;14.45;;;4.80;;
27618;SDS011;15039;50.830;4.730;2023-04-25T00:45:22;11.65;;;3.70;;
27618;SDS011;15039;50.830;4.730;2023-04-25T00:47:54;12.68;;;3.60;;
27618;SDS011;15039;50.830;4.730;2023-04-25T00:50:20;15.52;;;4.20;;
27618;SDS011;15039;50.830;4.730;2023-04-25T00:52:45;7.30;;;3.75;;
27618;SDS011;15039;50.830;4.730;2023-04-25T00:55:11;7.97;;;3.95;;
27618;SDS011;15039;50.830;4.730;2023-04-25T00:57:38;11.18;;;4.40;;
27618;SDS011;15039;50.830;4.730;2023-04-25T01:00:05;8.40;;;3.63;;
27618;SDS011;15039;50.830;4.730;2023-04-25T01:02:32;9.85;;;4.18;;
27618;SDS011;15039;50.830;4.730;2023-04-25T01:05:00;8.70;;;3.92;;
27618;SDS011;15039;50.830;4.730;2023-04-25T01:07:26;17.73;;;3.97;;
27618;SDS011;15039;50.830;4.730;2023-04-25T01:09:52;10.80;;;4.25;;
27618;SDS011;15039;50.830;4.730;2023-04-25T01:12:18;11.18;;;4.35;;
27618;SDS011;15039;50.830;4.730;2023-04-25T01:14:44;10.00;;;4.35;;
27618;SDS011;15039;50.830;4.730;2023-04-25T01:17:18;15.35;;;4.57;;
27618;SDS011;15039;50.830;4.730;2023-04-25T01:19:44;10.07;;;4.60;;
27618;SDS011;15039;50.830;4.730;2023-04-25T01:22:14;13.82;;;5.13;;
27618;SDS011;15039;50.830;4.730;2023-04-25T01:24:40;11.25;;;4.13;;
27618;SDS011;15039;50.830;4.730;2023-04-25T01:27:07;11.50;;;4.60;;
27618;SDS011;15039;50.830;4.730;2023-04-25T01:29:36;12.55;;;4.53;;
27618;SDS011;15039;50.830;4.730;2023-04-25T01:32:01;13.05;;;4.38;;
27618;SDS011;15039;50.830;4.730;2023-04-25T01:34:28;12.02;;;4.20;;
27618;SDS011;15039;50.830;4.730;2023-04-25T01:37:02;13.38;;;5.50;;
27618;SDS011;15039;50.830;4.730;2023-04-25T01:39:28;10.05;;;4.20;;
27618;SDS011;15039;50.830;4.730;2023-04-25T01:42:09;13.48;;;4.78;;
27618;SDS011;15039;50.830;4.730;2023-04-25T01:44:35;15.77;;;4.75;;
27618;SDS011;15039;50.830;4.730;2023-04-25T01:47:01;12.32;;;4.70;;
27618;SDS011;15039;50.830;4.730;2023-04-25T01:49:26;18.42;;;5.75;;
27618;SDS011;15039;50.830;4.730;2023-04-25T01:51:52;13.88;;;5.05;;
27618;SDS011;15039;50.830;4.730;2023-04-25T01:54:18;11.60;;;5.13;;
27618;SDS011;15039;50.830;4.730;2023-04-25T01:56:50;12.23;;;4.15;;
27618;SDS011;15039;50.830;4.730;2023-04-25T01:59:16;12.32;;;4.28;;
27618;SDS011;15039;50.830;4.730;2023-04-25T02:01:44;15.02;;;5.05;;
27618;SDS011;15039;50.830;4.730;2023-04-25T02:04:10;11.10;;;4.32;;
27618;SDS011;15039;50.830;4.730;2023-04-25T02:06:36;15.25;;;4.03;;
27618;SDS011;15039;50.830;4.730;2023-04-25T02:09:01;12.73;;;4.35;;
27618;SDS011;15039;50.830;4.730;2023-04-25T02:11:27;12.23;;;5.07;;
27618;SDS011;15039;50.830;4.730;2023-04-25T02:13:53;12.25;;;4.95;;
27618;SDS011;15039;50.830;4.730;2023-04-25T02:16:19;16.33;;;5.60;;
27618;SDS011;15039;50.830;4.730;2023-04-25T02:18:44;15.52;;;4.68;;
27618;SDS011;15039;50.830;4.730;2023-04-25T02:21:10;9.02;;;4.28;;
27618;SDS011;15039;50.830;4.730;2023-04-25T02:23:36;15.27;;;4.40;;
27618;SDS011;15039;50.830;4.730;2023-04-25T02:26:02;9.00;;;3.88;;
27618;SDS011;15039;50.830;4.730;2023-04-25T02:28:28;13.80;;;4.38;;
27618;SDS011;15039;50.830;4.730;2023-04-25T02:30:54;13.90;;;4.28;;
27618;SDS011;15039;50.830;4.730;2023-04-25T02:33:20;11.52;;;4.82;;
27618;SDS011;15039;50.830;4.730;2023-04-25T02:35:46;10.80;;;3.53;;
27618;SDS011;15039;50.830;4.730;2023-04-25T02:38:13;15.05;;;5.00;;
27618;SDS011;15039;50.830;4.730;2023-04-25T02:40:39;16.38;;;5.22;;
27618;SDS011;15039;50.830;4.730;2023-04-25T02:43:05;13.25;;;4.07;;
27618;SDS011;15039;50.830;4.730;2023-04-25T02:45:35;15.60;;;4.47;;
27618;SDS011;15039;50.830;4.730;2023-04-25T02:48:01;13.82;;;4.15;;
27618;SDS011;15039;50.830;4.730;2023-04-25T02:50:27;13.85;;;4.03;;
27618;SDS011;15039;50.830;4.730;2023-04-25T02:52:53;10.27;;;3.83;;
27618;SDS011;15039;50.830;4.730;2023-04-25T02:55:19;12.50;;;4.25;;
27618;SDS011;15039;50.830;4.730;2023-04-25T02:57:45;9.93;;;3.78;;
27618;SDS011;15039;50.830;4.730;2023-04-25T03:00:11;7.38;;;3.78;;
27618;SDS011;15039;50.830;4.730;2023-04-25T03:02:39;12.75;;;4.15;;
27618;SDS011;15039;50.830;4.730;2023-04-25T03:05:05;11.90;;;4.05;;
27618;SDS011;15039;50.830;4.730;2023-04-25T03:07:31;11.52;;;3.83;;
27618;SDS011;15039;50.830;4.730;2023-04-25T03:09:56;11.95;;;4.65;;
27618;SDS011;15039;50.830;4.730;2023-04-25T03:12:22;11.73;;;3.70;;
27618;SDS011;15039;50.830;4.730;2023-04-25T03:14:48;13.88;;;4.10;;
27618;SDS011;15039;50.830;4.730;2023-04-25T03:17:14;12.70;;;3.95;;
27618;SDS011;15039;50.830;4.730;2023-04-25T03:19:39;10.88;;;3.83;;
27618;SDS011;15039;50.830;4.730;2023-04-25T03:22:05;16.05;;;3.92;;
27618;SDS011;15039;50.830;4.730;2023-04-25T03:24:31;10.48;;;3.95;;
27618;SDS011;15039;50.830;4.730;2023-04-25T03:26:56;12.57;;;3.47;;
27618;SDS011;15039;50.830;4.730;2023-04-25T03:29:22;11.65;;;4.25;;
27618;SDS011;15039;50.830;4.730;2023-04-25T03:31:50;10.02;;;3.85;;
27618;SDS011;15039;50.830;4.730;2023-04-25T03:34:16;12.60;;;4.03;;
27618;SDS011;15039;50.830;4.730;2023-04-25T03:36:42;10.52;;;4.32;;
27618;SDS011;15039;50.830;4.730;2023-04-25T03:39:07;11.45;;;3.95;;
27618;SDS011;15039;50.830;4.730;2023-04-25T03:41:33;11.55;;;4.15;;
27618;SDS011;15039;50.830;4.730;2023-04-25T03:43:59;11.13;;;4.25;;
27618;SDS011;15039;50.830;4.730;2023-04-25T03:46:25;9.35;;;4.63;;
27618;SDS011;15039;50.830;4.730;2023-04-25T03:48:50;12.13;;;4.93;;
27618;SDS011;15039;50.830;4.730;2023-04-25T03:51:16;11.30;;;4.85;;
27618;SDS011;15039;50.830;4.730;2023-04-25T03:53:42;9.70;;;4.35;;
27618;SDS011;15039;50.830;4.730;2023-04-25T03:56:07;11.65;;;3.97;;
27618;SDS011;15039;50.830;4.730;2023-04-25T03:58:34;15.00;;;3.65;;
27618;SDS011;15039;50.830;4.730;2023-04-25T04:01:00;13.00;;;4.32;;
27618;SDS011;15039;50.830;4.730;2023-04-25T04:03:28;9.63;;;4.05;;
27618;SDS011;15039;50.830;4.730;2023-04-25T04:05:53;13.77;;;4.22;;
27618;SDS011;15039;50.830;4.730;2023-04-25T04:08:19;10.10;;;3.50;;
27618;SDS011;15039;50.830;4.730;2023-04-25T04:10:45;10.90;;;3.97;;
27618;SDS011;15039;50.830;4.730;2023-04-25T04:13:11;13.98;;;3.90;;
27618;SDS011;15039;50.830;4.730;2023-04-25T04:15:36;13.27;;;4.43;;
27618;SDS011;15039;50.830;4.730;2023-04-25T04:18:02;11.30;;;4.25;;
27618;SDS011;15039;50.830;4.730;2023-04-25T04:20:28;9.77;;;3.83;;
27618;SDS011;15039;50.830;4.730;2023-04-25T04:22:55;10.48;;;3.80;;
27618;SDS011;15039;50.830;4.730;2023-04-25T04:25:21;14.32;;;4.43;;
27618;SDS011;15039;50.830;4.730;2023-04-25T04:27:47;11.85;;;3.60;;
27618;SDS011;15039;50.830;4.730;2023-04-25T04:30:12;11.77;;;4.00;;
27618;SDS011;15039;50.830;4.730;2023-04-25T04:32:39;15.45;;;4.63;;
27618;SDS011;15039;50.830;4.730;2023-04-25T04:35:05;11.13;;;4.60;;
27618;SDS011;15039;50.830;4.730;2023-04-25T04:37:32;14.38;;;3.80;;
27618;SDS011;15039;50.830;4.730;2023-04-25T04:39:58;14.27;;;3.85;;
27618;SDS011;15039;50.830;4.730;2023-04-25T04:42:24;13.50;;;3.47;;
27618;SDS011;15039;50.830;4.730;2023-04-25T04:44:51;9.55;;;3.40;;
27618;SDS011;15039;50.830;4.730;2023-04-25T04:47:17;11.10;;;3.40;;
27618;SDS011;15039;50.830;4.730;2023-04-25T04:49:45;8.50;;;3.53;;
27618;SDS011;15039;50.830;4.730;2023-04-25T04:52:20;10.68;;;3.70;;
27618;SDS011;15039;50.830;4.730;2023-04-25T04:54:45;9.65;;;3.25;;
27618;SDS011;15039;50.830;4.730;2023-04-25T04:57:11;12.98;;;4.28;;
27618;SDS011;15039;50.830;4.730;2023-04-25T04:59:37;12.35;;;3.50;;
27618;SDS011;15039;50.830;4.730;2023-04-25T05:02:03;8.77;;;3.40;;
27618;SDS011;15039;50.830;4.730;2023-04-25T05:04:28;15.13;;;3.53;;
27618;SDS011;15039;50.830;4.730;2023-04-25T05:06:54;13.63;;;3.75;;
27618;SDS011;15039;50.830;4.730;2023-04-25T05:09:20;9.32;;;3.42;;
27618;SDS011;15039;50.830;4.730;2023-04-25T05:11:50;10.35;;;3.75;;
27618;SDS011;15039;50.830;4.730;2023-04-25T05:14:16;10.27;;;3.83;;
27618;SDS011;15039;50.830;4.730;2023-04-25T05:16:42;13.60;;;3.80;;
27618;SDS011;15039;50.830;4.730;2023-04-25T05:19:08;9.85;;;3.55;;
27618;SDS011;15039;50.830;4.730;2023-04-25T05:21:34;12.75;;;3.65;;
27618;SDS011;15039;50.830;4.730;2023-04-25T05:24:00;10.95;;;3.20;;
27618;SDS011;15039;50.830;4.730;2023-04-25T05:26:27;10.30;;;3.03;;
27618;SDS011;15039;50.830;4.730;2023-04-25T05:28:56;12.10;;;3.97;;
27618;SDS011;15039;50.830;4.730;2023-04-25T05:31:22;8.02;;;3.72;;
27618;SDS011;15039;50.830;4.730;2023-04-25T05:33:48;8.90;;;3.45;;
27618;SDS011;15039;50.830;4.730;2023-04-25T05:36:15;9.65;;;3.78;;
27618;SDS011;15039;50.830;4.730;2023-04-25T05:38:41;11.77;;;3.60;;
27618;SDS011;15039;50.830;4.730;2023-04-25T05:41:07;10.85;;;3.78;;
27618;SDS011;15039;50.830;4.730;2023-04-25T05:43:33;10.38;;;3.67;;
27618;SDS011;15039;50.830;4.730;2023-04-25T05:45:59;10.82;;;4.05;;
27618;SDS011;15039;50.830;4.730;2023-04-25T05:48:25;8.60;;;3.72;;
27618;SDS011;15039;50.830;4.730;2023-04-25T05:50:50;10.57;;;3.42;;
27618;SDS011;15039;50.830;4.730;2023-04-25T05:53:16;10.90;;;3.50;;
27618;SDS011;15039;50.830;4.730;2023-04-25T05:55:43;11.88;;;4.00;;
27618;SDS011;15039;50.830;4.730;2023-04-25T05:58:08;9.77;;;3.25;;
27618;SDS011;15039;50.830;4.730;2023-04-25T06:00:34;14.15;;;3.70;;
27618;SDS011;15039;50.830;4.730;2023-04-25T06:03:01;13.07;;;3.58;;
27618;SDS011;15039;50.830;4.730;2023-04-25T06:05:27;13.48;;;4.32;;
27618;SDS011;15039;50.830;4.730;2023-04-25T06:07:53;15.90;;;4.60;;
27618;SDS011;15039;50.830;4.730;2023-04-25T06:10:18;13.27;;;4.70;;
27618;SDS011;15039;50.830;4.730;2023-04-25T06:12:44;12.02;;;3.80;;
27618;SDS011;15039;50.830;4.730;2023-04-25T06:15:10;11.30;;;3.67;;
27618;SDS011;15039;50.830;4.730;2023-04-25T06:17:36;8.75;;;4.00;;
27618;SDS011;15039;50.830;4.730;2023-04-25T06:20:02;12.43;;;5.25;;
27618;SDS011;15039;50.830;4.730;2023-04-25T06:22:28;15.70;;;4.80;;
27618;SDS011;15039;50.830;4.730;2023-04-25T06:24:54;11.93;;;4.40;;
27618;SDS011;15039;50.830;4.730;2023-04-25T06:27:23;10.88;;;4.18;;
27618;SDS011;15039;50.830;4.730;2023-04-25T06:29:50;11.73;;;4.80;;
27618;SDS011;15039;50.830;4.730;2023-04-25T06:32:15;15.30;;;4.47;;
27618;SDS011;15039;50.830;4.730;2023-04-25T06:34:44;11.75;;;4.28;;
27618;SDS011;15039;50.830;4.730;2023-04-25T06:37:10;12.57;;;4.80;;
27618;SDS011;15039;50.830;4.730;2023-04-25T06:39:36;8.80;;;4.18;;
27618;SDS011;15039;50.830;4.730;2023-04-25T06:42:02;9.32;;;3.65;;
27618;SDS011;15039;50.830;4.730;2023-04-25T06:44:28;17.00;;;4.05;;
27618;SDS011;15039;50.830;4.730;2023-04-25T06:46:54;11.13;;;4.00;;
27618;SDS011;15039;50.830;4.730;2023-04-25T06:49:20;12.15;;;4.43;;
27618;SDS011;15039;50.830;4.730;2023-04-25T06:51:46;9.98;;;4.25;;
27618;SDS011;15039;50.830;4.730;2023-04-25T06:54:11;12.00;;;4.43;;
27618;SDS011;15039;50.830;4.730;2023-04-25T06:56:37;14.23;;;3.70;;
27618;SDS011;15039;50.830;4.730;2023-04-25T06:59:03;10.82;;;3.70;;
27618;SDS011;15039;50.830;4.730;2023-04-25T07:01:29;10.35;;;3.42;;
27618;SDS011;15039;50.830;4.730;2023-04-25T07:03:55;9.40;;;3.83;;
27618;SDS011;15039;50.830;4.730;2023-04-25T07:06:21;10.95;;;3.83;;
27618;SDS011;15039;50.830;4.730;2023-04-25T07:08:47;10.60;;;3.65;;
27618;SDS011;15039;50.830;4.730;2023-04-25T07:11:13;12.35;;;3.22;;
27618;SDS011;15039;50.830;4.730;2023-04-25T07:13:38;12.20;;;3.50;;
27618;SDS011;15039;50.830;4.730;2023-04-25T07:16:04;13.98;;;3.90;;
27618;SDS011;15039;50.830;4.730;2023-04-25T07:18:30;12.40;;;3.13;;
27618;SDS011;15039;50.830;4.730;2023-04-25T07:20:56;8.38;;;3.03;;
27618;SDS011;15039;50.830;4.730;2023-04-25T07:23:22;13.13;;;3.97;;
27618;SDS011;15039;50.830;4.730;2023-04-25T07:25:48;11.27;;;3.50;;
27618;SDS011;15039;50.830;4.730;2023-04-25T07:28:13;11.60;;;3.45;;
27618;SDS011;15039;50.830;4.730;2023-04-25T07:30:39;18.88;;;4.15;;
27618;SDS011;15039;50.830;4.730;2023-04-25T07:33:05;9.65;;;3.85;;
27618;SDS011;15039;50.830;4.730;2023-04-25T07:35:30;10.63;;;3.47;;
27618;SDS011;15039;50.830;4.730;2023-04-25T07:37:56;13.15;;;4.13;;
27618;SDS011;15039;50.830;4.730;2023-04-25T07:40:22;10.70;;;3.35;;
27618;SDS011;15039;50.830;4.730;2023-04-25T07:42:47;8.85;;;2.83;;
27618;SDS011;15039;50.830;4.730;2023-04-25T07:45:13;7.75;;;3.42;;
27618;SDS011;15039;50.830;4.730;2023-04-25T07:47:39;8.88;;;3.13;;
27618;SDS011;15039;50.830;4.730;2023-04-25T07:50:05;12.40;;;3.20;;
27618;SDS011;15039;50.830;4.730;2023-04-25T07:52:31;12.00;;;2.72;;
27618;SDS011;15039;50.830;4.730;2023-04-25T07:54:57;11.95;;;3.63;;
27618;SDS011;15039;50.830;4.730;2023-04-25T07:57:23;10.70;;;3.30;;
27618;SDS011;15039;50.830;4.730;2023-04-25T07:59:49;8.77;;;3.22;;
27618;SDS011;15039;50.830;4.730;2023-04-25T08:02:15;11.45;;;3.60;;
27618;SDS011;15039;50.830;4.730;2023-04-25T08:04:41;9.70;;;2.83;;
27618;SDS011;15039;50.830;4.730;2023-04-25T08:07:07;9.25;;;3.60;;
27618;SDS011;15039;50.830;4.730;2023-04-25T08:09:32;10.63;;;2.80;;
27618;SDS011;15039;50.830;4.730;2023-04-25T08:12:00;7.15;;;2.70;;
27618;SDS011;15039;50.830;4.730;2023-04-25T08:14:27;10.35;;;3.17;;
27618;SDS011;15039;50.830;4.730;2023-04-25T08:16:56;7.32;;;3.08;;
27618;SDS011;15039;50.830;4.730;2023-04-25T08:19:22;9.95;;;2.63;;
27618;SDS011;15039;50.830;4.730;2023-04-25T08:21:50;8.27;;;2.78;;
27618;SDS011;15039;50.830;4.730;2023-04-25T08:24:16;11.13;;;3.20;;
27618;SDS011;15039;50.830;4.730;2023-04-25T08:26:42;12.32;;;2.78;;
27618;SDS011;15039;50.830;4.730;2023-04-25T08:29:08;9.52;;;3.08;;
27618;SDS011;15039;50.830;4.730;2023-04-25T08:31:33;7.85;;;2.83;;
27618;SDS011;15039;50.830;4.730;2023-04-25T08:33:59;9.88;;;3.40;;
27618;SDS011;15039;50.830;4.730;2023-04-25T08:36:25;10.98;;;3.30;;
27618;SDS011;15039;50.830;4.730;2023-04-25T08:38:53;7.70;;;3.15;;
27618;SDS011;15039;50.830;4.730;2023-04-25T08:41:19;12.07;;;2.85;;
27618;SDS011;15039;50.830;4.730;2023-04-25T08:43:47;8.73;;;2.72;;
27618;SDS011;15039;50.830;4.730;2023-04-25T08:46:17;7.00;;;2.65;;
27618;SDS011;15039;50.830;4.730;2023-04-25T08:48:44;11.93;;;3.42;;
27618;SDS011;15039;50.830;4.730;2023-04-25T08:51:14;10.73;;;3.40;;
27618;SDS011;15039;50.830;4.730;2023-04-25T08:53:50;9.60;;;2.92;;
27618;SDS011;15039;50.830;4.730;2023-04-25T08:56:17;7.72;;;2.80;;
27618;SDS011;15039;50.830;4.730;2023-04-25T08:58:50;5.75;;;2.30;;
27618;SDS011;15039;50.830;4.730;2023-04-25T09:01:16;13.18;;;2.53;;
27618;SDS011;15039;50.830;4.730;2023-04-25T09:03:43;9.18;;;2.50;;
27618;SDS011;15039;50.830;4.730;2023-04-25T09:06:12;5.70;;;2.38;;
27618;SDS011;15039;50.830;4.730;2023-04-25T09:11:06;7.65;;;1.80;;
27618;SDS011;15039;50.830;4.730;2023-04-25T09:13:32;7.07;;;1.77;;
27618;SDS011;15039;50.830;4.730;2023-04-25T09:15:58;5.75;;;2.10;;
27618;SDS011;15039;50.830;4.730;2023-04-25T09:18:24;4.45;;;1.60;;
27618;SDS011;15039;50.830;4.730;2023-04-25T09:21:08;7.13;;;1.77;;
27618;SDS011;15039;50.830;4.730;2023-04-25T09:23:53;6.22;;;1.75;;
27618;SDS011;15039;50.830;4.730;2023-04-25T09:26:19;7.25;;;2.13;;
27618;SDS011;15039;50.830;4.730;2023-04-25T09:28:46;9.18;;;2.67;;
27618;SDS011;15039;50.830;4.730;2023-04-25T09:31:20;8.18;;;2.00;;
27618;SDS011;15039;50.830;4.730;2023-04-25T09:33:50;7.43;;;2.33;;
27618;SDS011;15039;50.830;4.730;2023-04-25T09:36:29;7.78;;;2.00;;
27618;SDS011;15039;50.830;4.730;2023-04-25T09:38:55;6.22;;;2.13;;
27618;SDS011;15039;50.830;4.730;2023-04-25T09:41:24;9.98;;;2.35;;
27618;SDS011;15039;50.830;4.730;2023-04-25T09:43:50;5.75;;;2.22;;
27618;SDS011;15039;50.830;4.730;2023-04-25T09:46:16;8.45;;;2.25;;
27618;SDS011;15039;50.830;4.730;2023-04-25T09:48:49;8.98;;;1.98;;
27618;SDS011;15039;50.830;4.730;2023-04-25T09:51:16;8.20;;;2.22;;
27618;SDS011;15039;50.830;4.730;2023-04-25T09:53:42;5.18;;;1.83;;
27618;SDS011;15039;50.830;4.730;2023-04-25T09:56:11;7.53;;;1.73;;
27618;SDS011;15039;50.830;4.730;2023-04-25T09:58:38;6.22;;;1.90;;
27618;SDS011;15039;50.830;4.730;2023-04-25T10:01:06;6.18;;;1.77;;
27618;SDS011;15039;50.830;4.730;2023-04-25T10:03:34;5.72;;;2.05;;
27618;SDS011;15039;50.830;4.730;2023-04-25T10:06:01;8.57;;;2.13;;
27618;SDS011;15039;50.830;4.730;2023-04-25T10:08:31;9.15;;;2.53;;
27618;SDS011;15039;50.830;4.730;2023-04-25T10:11:02;5.88;;;2.00;;
27618;SDS011;15039;50.830;4.730;2023-04-25T10:13:30;8.50;;;2.15;;
27618;SDS011;15039;50.830;4.730;2023-04-25T10:16:03;5.65;;;1.65;;
27618;SDS011;15039;50.830;4.730;2023-04-25T10:18:30;7.20;;;1.70;;
27618;SDS011;15039;50.830;4.730;2023-04-25T10:20:57;4.88;;;1.50;;
27618;SDS011;15039;50.830;4.730;2023-04-25T10:23:25;5.57;;;1.50;;
27618;SDS011;15039;50.830;4.730;2023-04-25T10:25:51;5.05;;;1.80;;
27618;SDS011;15039;50.830;4.730;2023-04-25T10:28:18;4.32;;;1.52;;
27618;SDS011;15039;50.830;4.730;2023-04-25T10:31:10;3.03;;;1.38;;
27618;SDS011;15039;50.830;4.730;2023-04-25T10:33:36;5.90;;;1.42;;
27618;SDS011;15039;50.830;4.730;2023-04-25T10:36:13;3.13;;;0.90;;
27618;SDS011;15039;50.830;4.730;2023-04-25T10:38:50;3.38;;;1.25;;
27618;SDS011;15039;50.830;4.730;2023-04-25T10:41:25;2.45;;;1.13;;
27618;SDS011;15039;50.830;4.730;2023-04-25T10:43:58;4.40;;;1.30;;
27618;SDS011;15039;50.830;4.730;2023-04-25T10:46:28;2.50;;;1.15;;
27618;SDS011;15039;50.830;4.730;2023-04-25T10:48:58;2.80;;;1.15;;
27618;SDS011;15039;50.830;4.730;2023-04-25T10:51:32;2.55;;;1.00;;
27618;SDS011;15039;50.830;4.730;2023-04-25T10:54:06;3.92;;;1.10;;
27618;SDS011;15039;50.830;4.730;2023-04-25T10:56:39;3.45;;;1.10;;
27618;SDS011;15039;50.830;4.730;2023-04-25T10:59:19;4.50;;;1.50;;
27618;SDS011;15039;50.830;4.730;2023-04-25T11:01:47;2.50;;;1.15;;
27618;SDS011;15039;50.830;4.730;2023-04-25T11:04:28;2.42;;;0.90;;
27618;SDS011;15039;50.830;4.730;2023-04-25T11:06:58;2.30;;;1.15;;
27618;SDS011;15039;50.830;4.730;2023-04-25T11:09:32;3.30;;;1.00;;
27618;SDS011;15039;50.830;4.730;2023-04-25T11:12:03;4.82;;;1.23;;
27618;SDS011;15039;50.830;4.730;2023-04-25T11:14:30;3.42;;;1.30;;
27618;SDS011;15039;50.830;4.730;2023-04-25T11:16:59;4.57;;;1.25;;
27618;SDS011;15039;50.830;4.730;2023-04-25T11:19:41;3.40;;;1.20;;
27618;SDS011;15039;50.830;4.730;2023-04-25T11:22:07;3.75;;;1.35;;
27618;SDS011;15039;50.830;4.730;2023-04-25T11:24:37;2.80;;;1.08;;
27618;SDS011;15039;50.830;4.730;2023-04-25T11:27:03;4.28;;;1.80;;
27618;SDS011;15039;50.830;4.730;2023-04-25T11:29:33;4.20;;;1.17;;
27618;SDS011;15039;50.830;4.730;2023-04-25T11:32:01;4.28;;;1.25;;
27618;SDS011;15039;50.830;4.730;2023-04-25T11:34:28;3.17;;;1.35;;
27618;SDS011;15039;50.830;4.730;2023-04-25T11:36:58;4.80;;;1.20;;
27618;SDS011;15039;50.830;4.730;2023-04-25T11:39:31;3.47;;;1.33;;
27618;SDS011;15039;50.830;4.730;2023-04-25T11:41:57;3.53;;;1.60;;
27618;SDS011;15039;50.830;4.730;2023-04-25T11:44:29;6.55;;;1.55;;
27618;SDS011;15039;50.830;4.730;2023-04-25T11:46:55;3.05;;;1.70;;
27618;SDS011;15039;50.830;4.730;2023-04-25T11:49:22;5.15;;;1.85;;
27618;SDS011;15039;50.830;4.730;2023-04-25T11:51:49;8.38;;;2.35;;
27618;SDS011;15039;50.830;4.730;2023-04-25T11:54:24;3.50;;;1.75;;
27618;SDS011;15039;50.830;4.730;2023-04-25T11:56:52;4.18;;;1.52;;
27618;SDS011;15039;50.830;4.730;2023-04-25T11:59:24;5.63;;;1.90;;
27618;SDS011;15039;50.830;4.730;2023-04-25T12:01:51;4.18;;;1.50;;
27618;SDS011;15039;50.830;4.730;2023-04-25T12:04:21;2.88;;;1.13;;
27618;SDS011;15039;50.830;4.730;2023-04-25T12:06:50;3.58;;;1.40;;
27618;SDS011;15039;50.830;4.730;2023-04-25T12:09:21;2.30;;;1.20;;
27618;SDS011;15039;50.830;4.730;2023-04-25T12:11:59;2.50;;;1.35;;
27618;SDS011;15039;50.830;4.730;2023-04-25T12:14:47;2.15;;;1.10;;
27618;SDS011;15039;50.830;4.730;2023-04-25T12:17:14;3.42;;;1.17;;
27618;SDS011;15039;50.830;4.730;2023-04-25T12:19:41;7.15;;;1.60;;
27618;SDS011;15039;50.830;4.730;2023-04-25T12:22:20;3.15;;;1.48;;
27618;SDS011;15039;50.830;4.730;2023-04-25T12:24:47;4.07;;;1.25;;
27618;SDS011;15039;50.830;4.730;2023-04-25T12:27:30;4.47;;;1.58;;
27618;SDS011;15039;50.830;4.730;2023-04-25T12:29:57;3.58;;;1.63;;
27618;SDS011;15039;50.830;4.730;2023-04-25T12:32:24;4.28;;;1.48;;
27618;SDS011;15039;50.830;4.730;2023-04-25T12:34:52;3.10;;;1.42;;
27618;SDS011;15039;50.830;4.730;2023-04-25T12:37:18;3.70;;;1.48;;
27618;SDS011;15039;50.830;4.730;2023-04-25T12:39:44;2.35;;;1.30;;
27618;SDS011;15039;50.830;4.730;2023-04-25T12:42:11;3.90;;;1.45;;
27618;SDS011;15039;50.830;4.730;2023-04-25T12:44:43;5.03;;;1.40;;
27618;SDS011;15039;50.830;4.730;2023-04-25T12:47:08;8.07;;;1.33;;
27618;SDS011;15039;50.830;4.730;2023-04-25T12:49:36;4.38;;;1.25;;
27618;SDS011;15039;50.830;4.730;2023-04-25T12:52:01;2.60;;;1.33;;
27618;SDS011;15039;50.830;4.730;2023-04-25T12:54:33;6.55;;;1.35;;
27618;SDS011;15039;50.830;4.730;2023-04-25T12:57:01;2.17;;;0.90;;
27618;SDS011;15039;50.830;4.730;2023-04-25T12:59:27;2.72;;;0.98;;
27618;SDS011;15039;50.830;4.730;2023-04-25T13:01:53;2.55;;;1.05;;
27618;SDS011;15039;50.830;4.730;2023-04-25T13:04:20;3.67;;;0.90;;
27618;SDS011;15039;50.830;4.730;2023-04-25T13:06:46;3.03;;;1.10;;
27618;SDS011;15039;50.830;4.730;2023-04-25T13:09:15;4.72;;;0.90;;
27618;SDS011;15039;50.830;4.730;2023-04-25T13:11:43;2.50;;;1.10;;
27618;SDS011;15039;50.830;4.730;2023-04-25T13:14:09;2.10;;;0.90;;
27618;SDS011;15039;50.830;4.730;2023-04-25T13:16:48;6.85;;;1.63;;
27618;SDS011;15039;50.830;4.730;2023-04-25T13:19:14;2.53;;;1.10;;
27618;SDS011;15039;50.830;4.730;2023-04-25T13:21:43;2.08;;;1.13;;
27618;SDS011;15039;50.830;4.730;2023-04-25T13:24:09;2.55;;;1.20;;
27618;SDS011;15039;50.830;4.730;2023-04-25T13:26:35;4.63;;;1.05;;
27618;SDS011;15039;50.830;4.730;2023-04-25T13:29:01;2.83;;;1.02;;
27618;SDS011;15039;50.830;4.730;2023-04-25T13:31:28;3.58;;;1.20;;
27618;SDS011;15039;50.830;4.730;2023-04-25T13:33:54;4.10;;;1.23;;
27618;SDS011;15039;50.830;4.730;2023-04-25T13:36:21;2.70;;;0.90;;
27618;SDS011;15039;50.830;4.730;2023-04-25T13:38:47;3.17;;;1.75;;
27618;SDS011;15039;50.830;4.730;2023-04-25T13:41:14;5.63;;;1.25;;
27618;SDS011;15039;50.830;4.730;2023-04-25T13:43:44;2.75;;;1.05;;
27618;SDS011;15039;50.830;4.730;2023-04-25T13:46:11;3.42;;;1.38;;
27618;SDS011;15039;50.830;4.730;2023-04-25T13:48:38;1.63;;;1.38;;
27618;SDS011;15039;50.830;4.730;2023-04-25T13:51:03;2.78;;;1.23;;
27618;SDS011;15039;50.830;4.730;2023-04-25T13:53:32;4.70;;;1.10;;
27618;SDS011;15039;50.830;4.730;2023-04-25T13:55:57;2.72;;;1.00;;
27618;SDS011;15039;50.830;4.730;2023-04-25T13:58:23;5.22;;;1.42;;
27618;SDS011;15039;50.830;4.730;2023-04-25T14:00:48;2.45;;;1.20;;
27618;SDS011;15039;50.830;4.730;2023-04-25T14:03:14;3.65;;;1.33;;
27618;SDS011;15039;50.830;4.730;2023-04-25T14:05:40;3.20;;;1.17;;
27618;SDS011;15039;50.830;4.730;2023-04-25T14:08:08;2.03;;;1.10;;
27618;SDS011;15039;50.830;4.730;2023-04-25T14:10:36;4.22;;;1.10;;
27618;SDS011;15039;50.830;4.730;2023-04-25T14:13:02;3.15;;;1.20;;
27618;SDS011;15039;50.830;4.730;2023-04-25T14:15:30;4.03;;;1.00;;
27618;SDS011;15039;50.830;4.730;2023-04-25T14:17:56;7.22;;;1.55;;
27618;SDS011;15039;50.830;4.730;2023-04-25T14:20:37;3.30;;;1.10;;
27618;SDS011;15039;50.830;4.730;2023-04-25T14:23:03;3.03;;;1.20;;
27618;SDS011;15039;50.830;4.730;2023-04-25T14:25:29;3.50;;;1.00;;
27618;SDS011;15039;50.830;4.730;2023-04-25T14:27:56;5.22;;;1.35;;
27618;SDS011;15039;50.830;4.730;2023-04-25T14:30:22;4.35;;;1.15;;
27618;SDS011;15039;50.830;4.730;2023-04-25T14:32:48;3.97;;;2.22;;
27618;SDS011;15039;50.830;4.730;2023-04-25T14:35:14;3.70;;;1.27;;
27618;SDS011;15039;50.830;4.730;2023-04-25T14:37:40;5.68;;;1.50;;
27618;SDS011;15039;50.830;4.730;2023-04-25T14:40:07;4.28;;;1.55;;
27618;SDS011;15039;50.830;4.730;2023-04-25T14:42:35;3.35;;;1.10;;
27618;SDS011;15039;50.830;4.730;2023-04-25T14:45:05;5.40;;;1.30;;